sensor_id;sensor_type;location;lat;lon;timestamp;P1;durP1;ratioP1;P2;durP2;ratioP2
52730;SDS011;38624;53.242;6.974;2023-03-24T00:01:50;13.85;;;5.30;;
52730;SDS011;38624;53.242;6.974;2023-03-24T00:04:16;12.05;;;5.15;;
52730;SDS011;38624;53.242;6.974;2023-03-24T00:06:42;10.73;;;5.53;;
52730;SDS011;38624;53.242;6.974;2023-03-24T00:09:08;13.33;;;5.60;;
52730;SDS011;38624;53.242;6.974;2023-03-24T00:11:35;13.38;;;5.40;;
52730;SDS011;38624;53.242;6.974;2023-03-24T00:14:02;16.15;;;5.85;;
52730;SDS011;38624;53.242;6.974;2023-03-24T00:16:29;12.88;;;5.60;;
52730;SDS011;38624;53.242;6.974;2023-03-24T00:18:55;11.57;;;5.40;;
52730;SDS011;38624;53.242;6.974;2023-03-24T00:21:21;11.57;;;5.65;;
52730;SDS011;38624;53.242;6.974;2023-03-24T00:23:49;9.90;;;5.05;;
52730;SDS011;38624;53.242;6.974;2023-03-24T00:26:18;16.42;;;5.53;;
52730;SDS011;38624;53.242;6.974;2023-03-24T00:28:45;11.68;;;5.60;;
52730;SDS011;38624;53.242;6.974;2023-03-24T00:31:13;11.25;;;5.60;;
52730;SDS011;38624;53.242;6.974;2023-03-24T00:36:07;12.20;;;5.35;;
52730;SDS011;38624;53.242;6.974;2023-03-24T00:38:37;11.45;;;5.60;;
52730;SDS011;38624;53.242;6.974;2023-03-24T00:41:04;15.15;;;6.10;;
52730;SDS011;38624;53.242;6.974;2023-03-24T00:43:32;12.57;;;5.93;;
52730;SDS011;38624;53.242;6.974;2023-03-24T00:45:59;14.23;;;5.35;;
52730;SDS011;38624;53.242;6.974;2023-03-24T00:48:32;15.10;;;6.50;;
52730;SDS011;38624;53.242;6.974;2023-03-24T00:51:00;10.20;;;5.28;;
52730;SDS011;38624;53.242;6.974;2023-03-24T00:53:27;15.73;;;5.95;;
52730;SDS011;38624;53.242;6.974;2023-03-24T00:55:56;15.88;;;6.03;;
52730;SDS011;38624;53.242;6.974;2023-03-24T00:58:23;10.35;;;5.45;;
52730;SDS011;38624;53.242;6.974;2023-03-24T01:00:50;18.73;;;6.30;;
52730;SDS011;38624;53.242;6.974;2023-03-24T01:03:18;14.20;;;6.50;;
52730;SDS011;38624;53.242;6.974;2023-03-24T01:05:46;13.95;;;6.10;;
52730;SDS011;38624;53.242;6.974;2023-03-24T01:08:13;16.42;;;6.90;;
52730;SDS011;38624;53.242;6.974;2023-03-24T01:10:40;17.23;;;6.82;;
52730;SDS011;38624;53.242;6.974;2023-03-24T01:13:15;13.80;;;5.97;;
52730;SDS011;38624;53.242;6.974;2023-03-24T01:15:42;13.05;;;5.95;;
52730;SDS011;38624;53.242;6.974;2023-03-24T01:18:09;17.15;;;6.00;;
52730;SDS011;38624;53.242;6.974;2023-03-24T01:20:37;14.35;;;6.30;;
52730;SDS011;38624;53.242;6.974;2023-03-24T01:23:05;16.27;;;6.57;;
52730;SDS011;38624;53.242;6.974;2023-03-24T01:25:32;15.18;;;6.60;;
52730;SDS011;38624;53.242;6.974;2023-03-24T01:28:01;16.75;;;6.32;;
52730;SDS011;38624;53.242;6.974;2023-03-24T01:30:27;22.07;;;7.73;;
52730;SDS011;38624;53.242;6.974;2023-03-24T01:32:54;16.08;;;7.10;;
52730;SDS011;38624;53.242;6.974;2023-03-24T01:35:21;14.82;;;7.22;;
52730;SDS011;38624;53.242;6.974;2023-03-24T01:40:17;15.02;;;7.18;;
52730;SDS011;38624;53.242;6.974;2023-03-24T01:42:45;19.15;;;7.60;;
52730;SDS011;38624;53.242;6.974;2023-03-24T01:48:17;14.88;;;6.78;;
52730;SDS011;38624;53.242;6.974;2023-03-24T01:50:50;14.52;;;7.18;;
52730;SDS011;38624;53.242;6.974;2023-03-24T01:53:20;13.43;;;6.38;;
52730;SDS011;38624;53.242;6.974;2023-03-24T01:55:46;13.82;;;6.60;;
52730;SDS011;38624;53.242;6.974;2023-03-24T01:58:13;13.82;;;6.97;;
52730;SDS011;38624;53.242;6.974;2023-03-24T02:00:39;17.27;;;6.95;;
52730;SDS011;38624;53.242;6.974;2023-03-24T02:03:11;16.40;;;7.72;;
52730;SDS011;38624;53.242;6.974;2023-03-24T02:05:41;17.60;;;7.15;;
52730;SDS011;38624;53.242;6.974;2023-03-24T02:08:15;15.75;;;7.57;;
52730;SDS011;38624;53.242;6.974;2023-03-24T02:10:43;13.95;;;6.80;;
52730;SDS011;38624;53.242;6.974;2023-03-24T02:13:09;15.82;;;7.00;;
52730;SDS011;38624;53.242;6.974;2023-03-24T02:15:37;12.52;;;7.05;;
52730;SDS011;38624;53.242;6.974;2023-03-24T02:18:35;18.67;;;7.43;;
52730;SDS011;38624;53.242;6.974;2023-03-24T02:24:16;12.68;;;6.45;;
52730;SDS011;38624;53.242;6.974;2023-03-24T02:27:15;12.13;;;6.22;;
52730;SDS011;38624;53.242;6.974;2023-03-24T02:30:07;12.65;;;6.30;;
52730;SDS011;38624;53.242;6.974;2023-03-24T02:38:34;10.90;;;6.17;;
52730;SDS011;38624;53.242;6.974;2023-03-24T02:44:02;14.60;;;7.07;;
52730;SDS011;38624;53.242;6.974;2023-03-24T02:46:42;10.80;;;6.68;;
52730;SDS011;38624;53.242;6.974;2023-03-24T02:57:27;15.25;;;7.57;;
52730;SDS011;38624;53.242;6.974;2023-03-24T03:05:18;10.15;;;6.60;;
52730;SDS011;38624;53.242;6.974;2023-03-24T03:07:57;14.13;;;6.63;;
52730;SDS011;38624;53.242;6.974;2023-03-24T03:10:26;11.32;;;6.68;;
52730;SDS011;38624;53.242;6.974;2023-03-24T03:13:04;12.48;;;7.20;;
52730;SDS011;38624;53.242;6.974;2023-03-24T03:15:36;13.05;;;7.15;;
52730;SDS011;38624;53.242;6.974;2023-03-24T03:18:23;20.52;;;7.95;;
52730;SDS011;38624;53.242;6.974;2023-03-24T03:20:57;12.68;;;6.72;;
52730;SDS011;38624;53.242;6.974;2023-03-24T03:23:36;10.45;;;6.30;;
52730;SDS011;38624;53.242;6.974;2023-03-24T03:26:04;12.07;;;6.90;;
52730;SDS011;38624;53.242;6.974;2023-03-24T03:28:34;12.63;;;6.18;;
52730;SDS011;38624;53.242;6.974;2023-03-24T03:31:07;10.07;;;6.55;;
52730;SDS011;38624;53.242;6.974;2023-03-24T03:33:43;15.30;;;7.50;;
52730;SDS011;38624;53.242;6.974;2023-03-24T03:38:53;14.18;;;7.95;;
52730;SDS011;38624;53.242;6.974;2023-03-24T03:41:34;14.05;;;7.10;;
52730;SDS011;38624;53.242;6.974;2023-03-24T03:44:01;11.82;;;7.47;;
52730;SDS011;38624;53.242;6.974;2023-03-24T03:46:27;18.05;;;8.23;;
52730;SDS011;38624;53.242;6.974;2023-03-24T03:48:53;10.68;;;7.20;;
52730;SDS011;38624;53.242;6.974;2023-03-24T03:51:18;16.27;;;7.47;;
52730;SDS011;38624;53.242;6.974;2023-03-24T03:53:49;16.55;;;7.32;;
52730;SDS011;38624;53.242;6.974;2023-03-24T03:56:19;21.10;;;8.85;;
52730;SDS011;38624;53.242;6.974;2023-03-24T03:58:47;28.60;;;8.27;;
52730;SDS011;38624;53.242;6.974;2023-03-24T04:01:22;28.95;;;10.35;;
52730;SDS011;38624;53.242;6.974;2023-03-24T04:11:57;7.32;;;3.70;;
52730;SDS011;38624;53.242;6.974;2023-03-24T04:25:30;6.57;;;2.42;;
52730;SDS011;38624;53.242;6.974;2023-03-24T04:28:22;7.32;;;2.67;;
52730;SDS011;38624;53.242;6.974;2023-03-24T04:31:03;11.20;;;3.00;;
52730;SDS011;38624;53.242;6.974;2023-03-24T04:33:56;9.55;;;2.92;;
52730;SDS011;38624;53.242;6.974;2023-03-24T04:36:32;12.07;;;3.28;;
52730;SDS011;38624;53.242;6.974;2023-03-24T04:39:14;11.60;;;3.08;;
52730;SDS011;38624;53.242;6.974;2023-03-24T04:41:43;7.95;;;2.67;;
52730;SDS011;38624;53.242;6.974;2023-03-24T04:44:11;7.93;;;2.47;;
52730;SDS011;38624;53.242;6.974;2023-03-24T04:46:41;11.57;;;2.92;;
52730;SDS011;38624;53.242;6.974;2023-03-24T04:49:08;7.47;;;2.22;;
52730;SDS011;38624;53.242;6.974;2023-03-24T04:51:34;7.03;;;2.10;;
52730;SDS011;38624;53.242;6.974;2023-03-24T04:54:00;8.98;;;2.15;;
52730;SDS011;38624;53.242;6.974;2023-03-24T04:56:27;11.00;;;2.35;;
52730;SDS011;38624;53.242;6.974;2023-03-24T04:59:04;11.90;;;2.35;;
52730;SDS011;38624;53.242;6.974;2023-03-24T05:01:31;8.73;;;1.80;;
52730;SDS011;38624;53.242;6.974;2023-03-24T05:04:01;6.18;;;2.03;;
52730;SDS011;38624;53.242;6.974;2023-03-24T05:08:54;8.68;;;2.00;;
52730;SDS011;38624;53.242;6.974;2023-03-24T05:11:22;9.00;;;2.30;;
52730;SDS011;38624;53.242;6.974;2023-03-24T05:13:49;7.38;;;1.48;;
52730;SDS011;38624;53.242;6.974;2023-03-24T05:16:14;6.43;;;2.08;;
52730;SDS011;38624;53.242;6.974;2023-03-24T05:18:40;8.95;;;2.08;;
52730;SDS011;38624;53.242;6.974;2023-03-24T05:21:06;10.73;;;2.30;;
52730;SDS011;38624;53.242;6.974;2023-03-24T05:23:32;9.20;;;2.35;;
52730;SDS011;38624;53.242;6.974;2023-03-24T05:25:58;10.07;;;2.35;;
52730;SDS011;38624;53.242;6.974;2023-03-24T05:28:23;11.80;;;2.50;;
52730;SDS011;38624;53.242;6.974;2023-03-24T05:30:49;9.40;;;2.50;;
52730;SDS011;38624;53.242;6.974;2023-03-24T05:33:15;10.70;;;2.25;;
52730;SDS011;38624;53.242;6.974;2023-03-24T05:35:41;9.70;;;2.60;;
52730;SDS011;38624;53.242;6.974;2023-03-24T05:38:07;9.23;;;2.35;;
52730;SDS011;38624;53.242;6.974;2023-03-24T05:40:32;9.23;;;2.25;;
52730;SDS011;38624;53.242;6.974;2023-03-24T05:42:58;12.18;;;2.60;;
52730;SDS011;38624;53.242;6.974;2023-03-24T05:45:23;8.10;;;2.20;;
52730;SDS011;38624;53.242;6.974;2023-03-24T05:47:49;9.18;;;2.30;;
52730;SDS011;38624;53.242;6.974;2023-03-24T05:50:15;14.63;;;2.80;;
52730;SDS011;38624;53.242;6.974;2023-03-24T05:52:41;14.60;;;2.60;;
52730;SDS011;38624;53.242;6.974;2023-03-24T05:55:07;14.40;;;2.92;;
52730;SDS011;38624;53.242;6.974;2023-03-24T05:57:33;14.05;;;3.00;;
52730;SDS011;38624;53.242;6.974;2023-03-24T06:00:00;15.18;;;3.15;;
52730;SDS011;38624;53.242;6.974;2023-03-24T06:02:31;14.77;;;3.05;;
52730;SDS011;38624;53.242;6.974;2023-03-24T06:04:56;12.52;;;2.65;;
52730;SDS011;38624;53.242;6.974;2023-03-24T06:07:22;15.83;;;3.33;;
52730;SDS011;38624;53.242;6.974;2023-03-24T06:09:50;17.60;;;3.22;;
52730;SDS011;38624;53.242;6.974;2023-03-24T06:12:16;15.98;;;3.22;;
52730;SDS011;38624;53.242;6.974;2023-03-24T06:14:42;14.82;;;3.30;;
52730;SDS011;38624;53.242;6.974;2023-03-24T06:17:09;13.60;;;3.53;;
52730;SDS011;38624;53.242;6.974;2023-03-24T06:19:39;18.02;;;3.25;;
52730;SDS011;38624;53.242;6.974;2023-03-24T06:22:12;13.52;;;3.67;;
52730;SDS011;38624;53.242;6.974;2023-03-24T06:24:38;17.27;;;3.28;;
52730;SDS011;38624;53.242;6.974;2023-03-24T06:27:04;12.02;;;3.38;;
52730;SDS011;38624;53.242;6.974;2023-03-24T06:29:33;11.15;;;3.28;;
52730;SDS011;38624;53.242;6.974;2023-03-24T06:32:00;11.48;;;3.35;;
52730;SDS011;38624;53.242;6.974;2023-03-24T06:34:26;16.13;;;3.20;;
52730;SDS011;38624;53.242;6.974;2023-03-24T06:36:53;14.88;;;3.10;;
52730;SDS011;38624;53.242;6.974;2023-03-24T06:41:46;15.65;;;3.20;;
52730;SDS011;38624;53.242;6.974;2023-03-24T06:44:12;14.18;;;3.10;;
52730;SDS011;38624;53.242;6.974;2023-03-24T06:46:37;17.80;;;3.30;;
52730;SDS011;38624;53.242;6.974;2023-03-24T06:49:04;16.75;;;3.38;;
52730;SDS011;38624;53.242;6.974;2023-03-24T06:51:30;14.85;;;3.20;;
52730;SDS011;38624;53.242;6.974;2023-03-24T06:53:56;16.70;;;3.33;;
52730;SDS011;38624;53.242;6.974;2023-03-24T06:56:22;13.20;;;2.97;;
52730;SDS011;38624;53.242;6.974;2023-03-24T06:58:48;14.85;;;2.85;;
52730;SDS011;38624;53.242;6.974;2023-03-24T07:01:14;13.70;;;3.07;;
52730;SDS011;38624;53.242;6.974;2023-03-24T07:03:40;15.10;;;3.33;;
52730;SDS011;38624;53.242;6.974;2023-03-24T07:06:07;13.27;;;3.60;;
52730;SDS011;38624;53.242;6.974;2023-03-24T07:08:34;18.85;;;4.20;;
52730;SDS011;38624;53.242;6.974;2023-03-24T07:11:00;11.57;;;3.40;;
52730;SDS011;38624;53.242;6.974;2023-03-24T07:13:26;17.48;;;3.50;;
52730;SDS011;38624;53.242;6.974;2023-03-24T07:15:52;13.30;;;3.13;;
52730;SDS011;38624;53.242;6.974;2023-03-24T07:18:18;14.38;;;3.38;;
52730;SDS011;38624;53.242;6.974;2023-03-24T07:20:44;15.77;;;3.60;;
52730;SDS011;38624;53.242;6.974;2023-03-24T07:23:10;13.35;;;3.58;;
52730;SDS011;38624;53.242;6.974;2023-03-24T07:25:40;10.75;;;2.88;;
52730;SDS011;38624;53.242;6.974;2023-03-24T07:28:07;14.68;;;3.00;;
52730;SDS011;38624;53.242;6.974;2023-03-24T07:30:33;15.73;;;3.60;;
52730;SDS011;38624;53.242;6.974;2023-03-24T07:33:00;15.30;;;3.05;;
52730;SDS011;38624;53.242;6.974;2023-03-24T07:37:56;12.32;;;2.80;;
52730;SDS011;38624;53.242;6.974;2023-03-24T07:40:25;18.48;;;3.50;;
52730;SDS011;38624;53.242;6.974;2023-03-24T07:42:51;14.68;;;3.00;;
52730;SDS011;38624;53.242;6.974;2023-03-24T07:45:17;15.70;;;3.38;;
52730;SDS011;38624;53.242;6.974;2023-03-24T07:47:44;10.40;;;2.92;;
52730;SDS011;38624;53.242;6.974;2023-03-24T07:50:10;15.02;;;3.42;;
52730;SDS011;38624;53.242;6.974;2023-03-24T07:52:37;18.92;;;2.85;;
52730;SDS011;38624;53.242;6.974;2023-03-24T07:55:05;13.15;;;3.20;;
52730;SDS011;38624;53.242;6.974;2023-03-24T07:57:40;21.33;;;3.08;;
52730;SDS011;38624;53.242;6.974;2023-03-24T08:00:13;12.70;;;3.38;;
52730;SDS011;38624;53.242;6.974;2023-03-24T08:02:42;11.85;;;3.20;;
52730;SDS011;38624;53.242;6.974;2023-03-24T08:07:38;18.45;;;3.28;;
52730;SDS011;38624;53.242;6.974;2023-03-24T08:10:13;19.27;;;3.28;;
52730;SDS011;38624;53.242;6.974;2023-03-24T08:12:42;19.08;;;3.38;;
52730;SDS011;38624;53.242;6.974;2023-03-24T08:15:08;18.88;;;3.85;;
52730;SDS011;38624;53.242;6.974;2023-03-24T08:17:34;19.60;;;3.55;;
52730;SDS011;38624;53.242;6.974;2023-03-24T08:20:01;16.92;;;2.97;;
52730;SDS011;38624;53.242;6.974;2023-03-24T08:25:09;15.75;;;3.42;;
52730;SDS011;38624;53.242;6.974;2023-03-24T08:27:37;17.13;;;3.30;;
52730;SDS011;38624;53.242;6.974;2023-03-24T08:30:04;19.60;;;3.03;;
52730;SDS011;38624;53.242;6.974;2023-03-24T08:32:32;16.08;;;3.22;;
52730;SDS011;38624;53.242;6.974;2023-03-24T08:34:58;21.60;;;3.78;;
52730;SDS011;38624;53.242;6.974;2023-03-24T08:37:24;19.40;;;3.75;;
52730;SDS011;38624;53.242;6.974;2023-03-24T08:39:50;27.38;;;4.20;;
52730;SDS011;38624;53.242;6.974;2023-03-24T08:42:16;21.70;;;3.47;;
52730;SDS011;38624;53.242;6.974;2023-03-24T08:44:42;18.35;;;3.33;;
52730;SDS011;38624;53.242;6.974;2023-03-24T08:47:08;16.40;;;3.17;;
52730;SDS011;38624;53.242;6.974;2023-03-24T08:49:34;20.87;;;4.03;;
52730;SDS011;38624;53.242;6.974;2023-03-24T08:52:00;19.20;;;3.25;;
52730;SDS011;38624;53.242;6.974;2023-03-24T08:54:26;22.48;;;3.78;;
52730;SDS011;38624;53.242;6.974;2023-03-24T08:56:52;22.23;;;3.70;;
52730;SDS011;38624;53.242;6.974;2023-03-24T08:59:17;21.48;;;3.35;;
52730;SDS011;38624;53.242;6.974;2023-03-24T09:01:43;15.05;;;3.10;;
52730;SDS011;38624;53.242;6.974;2023-03-24T09:04:09;21.13;;;3.13;;
52730;SDS011;38624;53.242;6.974;2023-03-24T09:06:35;25.92;;;4.10;;
52730;SDS011;38624;53.242;6.974;2023-03-24T09:09:01;21.48;;;3.38;;
52730;SDS011;38624;53.242;6.974;2023-03-24T09:11:26;18.38;;;3.55;;
52730;SDS011;38624;53.242;6.974;2023-03-24T09:13:52;20.13;;;3.35;;
52730;SDS011;38624;53.242;6.974;2023-03-24T09:16:18;20.55;;;3.15;;
52730;SDS011;38624;53.242;6.974;2023-03-24T09:18:44;17.27;;;3.65;;
52730;SDS011;38624;53.242;6.974;2023-03-24T09:21:10;14.45;;;3.50;;
52730;SDS011;38624;53.242;6.974;2023-03-24T09:23:36;17.33;;;3.17;;
52730;SDS011;38624;53.242;6.974;2023-03-24T09:26:02;17.00;;;3.53;;
52730;SDS011;38624;53.242;6.974;2023-03-24T09:28:29;19.90;;;3.25;;
52730;SDS011;38624;53.242;6.974;2023-03-24T09:30:59;16.98;;;3.13;;
52730;SDS011;38624;53.242;6.974;2023-03-24T09:33:26;20.35;;;3.05;;
52730;SDS011;38624;53.242;6.974;2023-03-24T09:35:58;15.88;;;3.35;;
52730;SDS011;38624;53.242;6.974;2023-03-24T09:38:25;17.92;;;3.72;;
52730;SDS011;38624;53.242;6.974;2023-03-24T09:40:55;24.77;;;3.53;;
52730;SDS011;38624;53.242;6.974;2023-03-24T09:45:57;10.82;;;2.40;;
52730;SDS011;38624;53.242;6.974;2023-03-24T09:51:14;20.23;;;3.15;;
52730;SDS011;38624;53.242;6.974;2023-03-24T09:56:20;18.05;;;3.58;;
52730;SDS011;38624;53.242;6.974;2023-03-24T09:59:04;20.67;;;3.13;;
52730;SDS011;38624;53.242;6.974;2023-03-24T10:01:32;16.73;;;2.55;;
52730;SDS011;38624;53.242;6.974;2023-03-24T10:03:59;14.75;;;2.53;;
52730;SDS011;38624;53.242;6.974;2023-03-24T10:06:26;18.63;;;3.28;;
52730;SDS011;38624;53.242;6.974;2023-03-24T10:22:11;15.35;;;2.80;;
52730;SDS011;38624;53.242;6.974;2023-03-24T10:25:05;17.55;;;2.35;;
52730;SDS011;38624;53.242;6.974;2023-03-24T10:27:46;13.40;;;2.65;;
52730;SDS011;38624;53.242;6.974;2023-03-24T10:30:23;16.75;;;3.20;;
52730;SDS011;38624;53.242;6.974;2023-03-24T10:32:52;13.00;;;2.50;;
52730;SDS011;38624;53.242;6.974;2023-03-24T10:35:24;14.90;;;2.57;;
52730;SDS011;38624;53.242;6.974;2023-03-24T10:37:53;16.42;;;3.38;;
52730;SDS011;38624;53.242;6.974;2023-03-24T10:40:32;14.25;;;2.65;;
52730;SDS011;38624;53.242;6.974;2023-03-24T10:42:58;17.08;;;3.20;;
52730;SDS011;38624;53.242;6.974;2023-03-24T10:45:34;13.85;;;2.75;;
52730;SDS011;38624;53.242;6.974;2023-03-24T10:48:02;16.65;;;2.90;;
52730;SDS011;38624;53.242;6.974;2023-03-24T10:50:29;15.00;;;2.60;;
52730;SDS011;38624;53.242;6.974;2023-03-24T10:52:56;21.17;;;3.28;;
52730;SDS011;38624;53.242;6.974;2023-03-24T10:55:23;14.20;;;2.35;;
52730;SDS011;38624;53.242;6.974;2023-03-24T10:57:57;13.00;;;2.63;;
52730;SDS011;38624;53.242;6.974;2023-03-24T11:00:25;22.45;;;3.83;;
52730;SDS011;38624;53.242;6.974;2023-03-24T11:03:03;16.55;;;3.03;;
52730;SDS011;38624;53.242;6.974;2023-03-24T11:05:31;14.32;;;2.60;;
52730;SDS011;38624;53.242;6.974;2023-03-24T11:08:09;11.18;;;2.92;;
52730;SDS011;38624;53.242;6.974;2023-03-24T11:10:36;15.00;;;2.65;;
52730;SDS011;38624;53.242;6.974;2023-03-24T11:13:02;11.27;;;2.83;;
52730;SDS011;38624;53.242;6.974;2023-03-24T11:15:32;13.57;;;2.58;;
52730;SDS011;38624;53.242;6.974;2023-03-24T11:20:36;17.80;;;2.60;;
52730;SDS011;38624;53.242;6.974;2023-03-24T11:23:18;14.55;;;3.05;;
52730;SDS011;38624;53.242;6.974;2023-03-24T11:28:33;10.52;;;2.70;;
52730;SDS011;38624;53.242;6.974;2023-03-24T11:31:11;13.13;;;2.65;;
52730;SDS011;38624;53.242;6.974;2023-03-24T11:34:08;12.23;;;2.65;;
52730;SDS011;38624;53.242;6.974;2023-03-24T11:42:11;13.68;;;3.00;;
52730;SDS011;38624;53.242;6.974;2023-03-24T11:44:46;16.23;;;3.30;;
52730;SDS011;38624;53.242;6.974;2023-03-24T11:52:46;10.50;;;2.40;;
52730;SDS011;38624;53.242;6.974;2023-03-24T11:55:14;13.85;;;2.80;;
52730;SDS011;38624;53.242;6.974;2023-03-24T12:00:48;8.52;;;2.28;;
52730;SDS011;38624;53.242;6.974;2023-03-24T12:05:51;9.90;;;2.30;;
52730;SDS011;38624;53.242;6.974;2023-03-24T12:08:46;9.65;;;2.58;;
52730;SDS011;38624;53.242;6.974;2023-03-24T12:13:53;10.77;;;2.92;;
52730;SDS011;38624;53.242;6.974;2023-03-24T12:19:29;8.95;;;1.90;;
52730;SDS011;38624;53.242;6.974;2023-03-24T12:30:47;8.52;;;2.15;;
52730;SDS011;38624;53.242;6.974;2023-03-24T12:33:23;8.82;;;2.20;;
52730;SDS011;38624;53.242;6.974;2023-03-24T12:39:11;9.23;;;2.25;;
52730;SDS011;38624;53.242;6.974;2023-03-24T12:42:10;10.10;;;2.20;;
52730;SDS011;38624;53.242;6.974;2023-03-24T12:47:44;11.18;;;2.05;;
52730;SDS011;38624;53.242;6.974;2023-03-24T12:53:22;10.38;;;2.45;;
52730;SDS011;38624;53.242;6.974;2023-03-24T12:56:00;9.68;;;2.17;;
52730;SDS011;38624;53.242;6.974;2023-03-24T13:01:11;8.00;;;2.22;;
52730;SDS011;38624;53.242;6.974;2023-03-24T13:04:06;8.93;;;2.33;;
52730;SDS011;38624;53.242;6.974;2023-03-24T13:06:52;10.02;;;2.30;;
52730;SDS011;38624;53.242;6.974;2023-03-24T13:17:38;12.45;;;2.30;;
52730;SDS011;38624;53.242;6.974;2023-03-24T13:20:12;9.27;;;2.25;;
52730;SDS011;38624;53.242;6.974;2023-03-24T13:22:44;8.90;;;2.58;;
52730;SDS011;38624;53.242;6.974;2023-03-24T13:25:30;12.88;;;2.72;;
52730;SDS011;38624;53.242;6.974;2023-03-24T13:28:10;7.65;;;1.98;;
52730;SDS011;38624;53.242;6.974;2023-03-24T13:30:45;10.05;;;2.13;;
52730;SDS011;38624;53.242;6.974;2023-03-24T13:33:13;9.05;;;2.42;;
52730;SDS011;38624;53.242;6.974;2023-03-24T13:39:07;8.27;;;1.90;;
52730;SDS011;38624;53.242;6.974;2023-03-24T13:41:38;10.65;;;1.90;;
52730;SDS011;38624;53.242;6.974;2023-03-24T13:44:06;7.32;;;1.73;;
52730;SDS011;38624;53.242;6.974;2023-03-24T13:46:39;8.48;;;2.30;;
52730;SDS011;38624;53.242;6.974;2023-03-24T13:49:05;8.43;;;1.83;;
52730;SDS011;38624;53.242;6.974;2023-03-24T13:51:36;11.57;;;2.17;;
52730;SDS011;38624;53.242;6.974;2023-03-24T13:54:18;8.73;;;2.13;;
52730;SDS011;38624;53.242;6.974;2023-03-24T13:56:53;7.72;;;1.90;;
52730;SDS011;38624;53.242;6.974;2023-03-24T14:04:43;10.00;;;2.40;;
52730;SDS011;38624;53.242;6.974;2023-03-24T14:15:26;8.07;;;2.10;;
52730;SDS011;38624;53.242;6.974;2023-03-24T14:18:12;7.00;;;1.80;;
52730;SDS011;38624;53.242;6.974;2023-03-24T14:23:24;8.95;;;2.00;;
52730;SDS011;38624;53.242;6.974;2023-03-24T14:25:55;7.95;;;2.22;;
52730;SDS011;38624;53.242;6.974;2023-03-24T14:28:41;9.52;;;2.50;;
52730;SDS011;38624;53.242;6.974;2023-03-24T14:33:40;10.25;;;2.10;;
52730;SDS011;38624;53.242;6.974;2023-03-24T14:36:33;8.43;;;2.20;;
52730;SDS011;38624;53.242;6.974;2023-03-24T14:42:00;9.00;;;1.88;;
52730;SDS011;38624;53.242;6.974;2023-03-24T14:49:54;9.68;;;2.30;;
52730;SDS011;38624;53.242;6.974;2023-03-24T14:52:35;12.32;;;2.00;;
52730;SDS011;38624;53.242;6.974;2023-03-24T14:55:10;11.20;;;2.10;;
52730;SDS011;38624;53.242;6.974;2023-03-24T14:57:41;13.15;;;2.30;;
52730;SDS011;38624;53.242;6.974;2023-03-24T15:05:52;9.13;;;2.03;;
52730;SDS011;38624;53.242;6.974;2023-03-24T15:08:21;11.50;;;2.60;;
52730;SDS011;38624;53.242;6.974;2023-03-24T15:11:00;10.50;;;2.08;;
52730;SDS011;38624;53.242;6.974;2023-03-24T15:16:06;13.02;;;2.35;;
52730;SDS011;38624;53.242;6.974;2023-03-24T15:18:35;11.82;;;2.00;;
52730;SDS011;38624;53.242;6.974;2023-03-24T15:21:20;9.18;;;2.13;;
52730;SDS011;38624;53.242;6.974;2023-03-24T15:23:47;11.02;;;2.25;;
52730;SDS011;38624;53.242;6.974;2023-03-24T15:26:14;5.00;;;1.63;;
52730;SDS011;38624;53.242;6.974;2023-03-24T15:28:40;11.95;;;2.30;;
52730;SDS011;38624;53.242;6.974;2023-03-24T15:31:06;6.37;;;1.80;;
52730;SDS011;38624;53.242;6.974;2023-03-24T15:33:42;7.53;;;1.80;;
52730;SDS011;38624;53.242;6.974;2023-03-24T15:36:15;9.60;;;1.88;;
52730;SDS011;38624;53.242;6.974;2023-03-24T15:38:47;9.05;;;1.83;;
52730;SDS011;38624;53.242;6.974;2023-03-24T15:41:17;9.07;;;2.10;;
52730;SDS011;38624;53.242;6.974;2023-03-24T15:43:50;8.43;;;1.48;;
52730;SDS011;38624;53.242;6.974;2023-03-24T15:46:19;7.40;;;1.60;;
52730;SDS011;38624;53.242;6.974;2023-03-24T15:48:51;9.02;;;1.75;;
52730;SDS011;38624;53.242;6.974;2023-03-24T15:51:18;7.40;;;2.00;;
52730;SDS011;38624;53.242;6.974;2023-03-24T15:53:47;7.30;;;1.63;;
52730;SDS011;38624;53.242;6.974;2023-03-24T15:56:27;7.63;;;2.13;;
52730;SDS011;38624;53.242;6.974;2023-03-24T16:01:30;9.05;;;2.17;;
52730;SDS011;38624;53.242;6.974;2023-03-24T16:04:13;9.27;;;1.80;;
52730;SDS011;38624;53.242;6.974;2023-03-24T16:06:48;8.63;;;1.80;;
52730;SDS011;38624;53.242;6.974;2023-03-24T16:09:16;10.25;;;2.05;;
52730;SDS011;38624;53.242;6.974;2023-03-24T16:11:51;9.52;;;2.08;;
52730;SDS011;38624;53.242;6.974;2023-03-24T16:14:27;11.82;;;2.20;;
52730;SDS011;38624;53.242;6.974;2023-03-24T16:16:57;11.43;;;2.20;;
52730;SDS011;38624;53.242;6.974;2023-03-24T16:19:24;11.57;;;2.47;;
52730;SDS011;38624;53.242;6.974;2023-03-24T16:21:51;9.55;;;2.10;;
52730;SDS011;38624;53.242;6.974;2023-03-24T16:24:18;15.10;;;2.38;;
52730;SDS011;38624;53.242;6.974;2023-03-24T16:26:45;12.82;;;2.50;;
52730;SDS011;38624;53.242;6.974;2023-03-24T16:29:18;12.47;;;2.30;;
52730;SDS011;38624;53.242;6.974;2023-03-24T16:31:46;9.50;;;1.98;;
52730;SDS011;38624;53.242;6.974;2023-03-24T16:34:16;9.27;;;1.83;;
52730;SDS011;38624;53.242;6.974;2023-03-24T16:36:46;10.02;;;1.98;;
52730;SDS011;38624;53.242;6.974;2023-03-24T16:39:17;9.43;;;2.10;;
52730;SDS011;38624;53.242;6.974;2023-03-24T16:41:45;10.77;;;2.03;;
52730;SDS011;38624;53.242;6.974;2023-03-24T16:44:11;9.95;;;2.15;;
52730;SDS011;38624;53.242;6.974;2023-03-24T16:46:37;12.27;;;2.20;;
52730;SDS011;38624;53.242;6.974;2023-03-24T16:49:05;13.23;;;2.30;;
52730;SDS011;38624;53.242;6.974;2023-03-24T16:51:32;7.05;;;1.88;;
52730;SDS011;38624;53.242;6.974;2023-03-24T16:53:58;10.02;;;1.88;;
52730;SDS011;38624;53.242;6.974;2023-03-24T16:56:24;8.60;;;1.70;;
52730;SDS011;38624;53.242;6.974;2023-03-24T16:58:50;9.30;;;1.70;;
52730;SDS011;38624;53.242;6.974;2023-03-24T17:03:59;7.45;;;1.50;;
52730;SDS011;38624;53.242;6.974;2023-03-24T17:06:35;5.97;;;1.30;;
52730;SDS011;38624;53.242;6.974;2023-03-24T17:09:03;7.65;;;1.65;;
52730;SDS011;38624;53.242;6.974;2023-03-24T17:11:33;7.80;;;1.60;;
52730;SDS011;38624;53.242;6.974;2023-03-24T17:14:04;8.52;;;1.60;;
52730;SDS011;38624;53.242;6.974;2023-03-24T17:16:33;7.72;;;1.52;;
52730;SDS011;38624;53.242;6.974;2023-03-24T17:19:03;8.32;;;1.40;;
52730;SDS011;38624;53.242;6.974;2023-03-24T17:21:31;5.50;;;1.38;;
52730;SDS011;38624;53.242;6.974;2023-03-24T17:23:58;6.57;;;1.38;;
52730;SDS011;38624;53.242;6.974;2023-03-24T17:26:24;6.57;;;1.45;;
52730;SDS011;38624;53.242;6.974;2023-03-24T17:28:50;9.20;;;1.50;;
52730;SDS011;38624;53.242;6.974;2023-03-24T17:31:16;7.97;;;1.20;;
52730;SDS011;38624;53.242;6.974;2023-03-24T17:33:42;12.57;;;1.83;;
52730;SDS011;38624;53.242;6.974;2023-03-24T17:36:14;6.55;;;1.52;;
52730;SDS011;38624;53.242;6.974;2023-03-24T17:38:41;7.05;;;1.55;;
52730;SDS011;38624;53.242;6.974;2023-03-24T17:41:08;7.22;;;1.33;;
52730;SDS011;38624;53.242;6.974;2023-03-24T17:43:34;11.00;;;1.60;;
52730;SDS011;38624;53.242;6.974;2023-03-24T17:46:00;6.20;;;1.80;;
52730;SDS011;38624;53.242;6.974;2023-03-24T17:48:27;6.45;;;1.52;;
52730;SDS011;38624;53.242;6.974;2023-03-24T17:50:53;7.83;;;1.50;;
52730;SDS011;38624;53.242;6.974;2023-03-24T17:53:21;8.10;;;1.90;;
52730;SDS011;38624;53.242;6.974;2023-03-24T17:55:59;8.70;;;1.80;;
52730;SDS011;38624;53.242;6.974;2023-03-24T17:58:32;7.47;;;1.70;;
52730;SDS011;38624;53.242;6.974;2023-03-24T18:00:58;5.10;;;1.67;;
52730;SDS011;38624;53.242;6.974;2023-03-24T18:03:26;10.75;;;2.10;;
52730;SDS011;38624;53.242;6.974;2023-03-24T18:05:54;9.02;;;1.80;;